sensor_id;sensor_type;location;lat;lon;timestamp;pressure;altitude;pressure_sealevel;temperature;humidity
72794;BME280;63436;26.334;50.194;2023-02-01T00:01:12;61397.39;;;15.09;65.05
72794;BME280;63436;26.334;50.194;2023-02-01T00:03:37;61397.39;;;15.09;65.05
72794;BME280;63436;26.334;50.194;2023-02-01T00:06:03;61397.39;;;15.09;65.05
72794;BME280;63436;26.334;50.194;2023-02-01T00:08:28;61397.39;;;15.33;65.05
72794;BME280;63436;26.334;50.194;2023-02-01T00:10:59;61397.39;;;15.09;65.05
72794;BME280;63436;26.334;50.194;2023-02-01T00:13:18;61397.39;;;15.57;65.05
72794;BME280;63436;26.334;50.194;2023-02-01T00:15:44;61397.39;;;15.33;65.05
72794;BME280;63436;26.334;50.194;2023-02-01T00:18:10;61397.39;;;15.09;65.05
72794;BME280;63436;26.334;50.194;2023-02-01T00:20:35;61397.39;;;14.85;65.05
72794;BME280;63436;26.334;50.194;2023-02-01T00:23:02;61397.39;;;15.09;65.05
72794;BME280;63436;26.334;50.194;2023-02-01T00:25:26;61397.39;;;15.09;65.05
72794;BME280;63436;26.334;50.194;2023-02-01T00:27:52;61397.39;;;15.09;65.05
72794;BME280;63436;26.334;50.194;2023-02-01T00:30:22;61397.39;;;15.57;65.05
72794;BME280;63436;26.334;50.194;2023-02-01T00:32:43;61397.39;;;15.33;65.05
72794;BME280;63436;26.334;50.194;2023-02-01T00:35:08;61397.39;;;15.33;65.05
72794;BME280;63436;26.334;50.194;2023-02-01T00:37:33;61397.39;;;15.57;65.05
72794;BME280;63436;26.334;50.194;2023-02-01T00:39:59;61397.39;;;15.09;65.05
72794;BME280;63436;26.334;50.194;2023-02-01T00:42:24;61397.39;;;15.33;65.05
72794;BME280;63436;26.334;50.194;2023-02-01T00:44:49;61397.39;;;15.57;65.05
72794;BME280;63436;26.334;50.194;2023-02-01T00:47:15;61397.39;;;15.57;65.05
72794;BME280;63436;26.334;50.194;2023-02-01T00:49:40;61397.39;;;15.57;65.05
72794;BME280;63436;26.334;50.194;2023-02-01T00:52:06;61397.39;;;15.57;65.05
72794;BME280;63436;26.334;50.194;2023-02-01T00:54:31;61397.39;;;15.57;65.05
72794;BME280;63436;26.334;50.194;2023-02-01T00:56:56;61397.39;;;16.05;65.05
72794;BME280;63436;26.334;50.194;2023-02-01T00:59:22;61397.39;;;15.81;65.05
72794;BME280;63436;26.334;50.194;2023-02-01T01:01:47;61397.39;;;15.57;65.05
72794;BME280;63436;26.334;50.194;2023-02-01T01:04:12;61397.39;;;15.57;65.05
72794;BME280;63436;26.334;50.194;2023-02-01T01:06:38;61397.39;;;15.57;65.05
72794;BME280;63436;26.334;50.194;2023-02-01T01:09:04;61397.39;;;15.81;65.05
72794;BME280;63436;26.334;50.194;2023-02-01T01:11:31;61397.39;;;15.57;65.05
72794;BME280;63436;26.334;50.194;2023-02-01T01:13:55;61397.39;;;15.81;65.05
72794;BME280;63436;26.334;50.194;2023-02-01T01:16:20;61397.39;;;15.57;65.05
72794;BME280;63436;26.334;50.194;2023-02-01T01:18:45;61397.39;;;15.81;65.05
72794;BME280;63436;26.334;50.194;2023-02-01T01:21:13;61397.39;;;15.57;65.05
72794;BME280;63436;26.334;50.194;2023-02-01T01:23:36;61397.39;;;15.81;65.05
72794;BME280;63436;26.334;50.194;2023-02-01T01:26:04;61397.39;;;16.05;65.05
72794;BME280;63436;26.334;50.194;2023-02-01T01:28:26;61397.39;;;16.05;65.05
72794;BME280;63436;26.334;50.194;2023-02-01T01:30:51;61397.39;;;15.81;65.05
72794;BME280;63436;26.334;50.194;2023-02-01T01:33:17;61397.39;;;15.81;65.05
72794;BME280;63436;26.334;50.194;2023-02-01T01:35:42;61397.39;;;15.57;65.05
72794;BME280;63436;26.334;50.194;2023-02-01T01:38:09;61397.39;;;15.57;65.05
72794;BME280;63436;26.334;50.194;2023-02-01T01:40:33;61397.39;;;15.57;65.05
72794;BME280;63436;26.334;50.194;2023-02-01T01:43:00;61397.39;;;15.81;65.05
72794;BME280;63436;26.334;50.194;2023-02-01T01:45:26;61397.39;;;15.57;65.05
72794;BME280;63436;26.334;50.194;2023-02-01T01:47:53;61397.39;;;15.57;65.05
72794;BME280;63436;26.334;50.194;2023-02-01T01:50:19;61397.39;;;15.81;65.05
72794;BME280;63436;26.334;50.194;2023-02-01T01:52:41;61397.39;;;15.33;65.05
72794;BME280;63436;26.334;50.194;2023-02-01T01:55:07;61397.39;;;15.57;65.05
72794;BME280;63436;26.334;50.194;2023-02-01T01:57:34;61397.39;;;15.33;65.05
72794;BME280;63436;26.334;50.194;2023-02-01T02:00:00;61397.39;;;15.57;65.05
72794;BME280;63436;26.334;50.194;2023-02-01T02:02:22;61397.39;;;15.57;65.05
72794;BME280;63436;26.334;50.194;2023-02-01T02:04:48;61397.39;;;15.33;65.05
72794;BME280;63436;26.334;50.194;2023-02-01T02:07:17;61397.39;;;15.33;65.05
72794;BME280;63436;26.334;50.194;2023-02-01T02:09:40;61397.39;;;15.09;65.05
72794;BME280;63436;26.334;50.194;2023-02-01T02:12:06;61397.39;;;15.33;65.05
72794;BME280;63436;26.334;50.194;2023-02-01T02:14:32;61397.39;;;15.09;65.05
72794;BME280;63436;26.334;50.194;2023-02-01T02:17:07;61397.39;;;15.57;65.05
72794;BME280;63436;26.334;50.194;2023-02-01T02:19:43;61397.39;;;15.33;65.05
72794;BME280;63436;26.334;50.194;2023-02-01T02:21:56;61397.39;;;15.57;65.05
72794;BME280;63436;26.334;50.194;2023-02-01T02:26:49;61397.39;;;15.57;65.05
72794;BME280;63436;26.334;50.194;2023-02-01T02:29:26;61397.39;;;15.57;65.05
72794;BME280;63436;26.334;50.194;2023-02-01T02:31:42;61397.39;;;16.05;65.05
72794;BME280;63436;26.334;50.194;2023-02-01T02:34:02;61397.39;;;15.81;65.05
72794;BME280;63436;26.334;50.194;2023-02-01T02:36:26;61397.39;;;15.81;65.05
72794;BME280;63436;26.334;50.194;2023-02-01T02:38:54;61397.39;;;16.05;65.05
72794;BME280;63436;26.334;50.194;2023-02-01T02:41:15;61397.39;;;15.81;65.05
72794;BME280;63436;26.334;50.194;2023-02-01T02:43:40;61397.39;;;15.81;65.05
72794;BME280;63436;26.334;50.194;2023-02-01T02:46:04;61397.39;;;15.81;65.05
72794;BME280;63436;26.334;50.194;2023-02-01T02:48:29;61397.39;;;15.57;65.05
72794;BME280;63436;26.334;50.194;2023-02-01T02:50:53;61397.39;;;15.81;65.05
72794;BME280;63436;26.334;50.194;2023-02-01T02:53:18;61397.39;;;15.57;65.05
72794;BME280;63436;26.334;50.194;2023-02-01T02:55:41;61397.39;;;15.57;65.05
72794;BME280;63436;26.334;50.194;2023-02-01T02:58:07;61397.39;;;15.57;65.05
72794;BME280;63436;26.334;50.194;2023-02-01T03:00:34;61397.39;;;15.81;65.05
72794;BME280;63436;26.334;50.194;2023-02-01T03:02:58;61397.39;;;15.81;65.05
72794;BME280;63436;26.334;50.194;2023-02-01T03:05:23;61397.39;;;15.81;65.05
72794;BME280;63436;26.334;50.194;2023-02-01T03:07:56;61397.39;;;15.57;65.05
72794;BME280;63436;26.334;50.194;2023-02-01T03:10:21;61397.39;;;15.57;65.05
72794;BME280;63436;26.334;50.194;2023-02-01T03:12:41;61397.39;;;15.81;65.05
72794;BME280;63436;26.334;50.194;2023-02-01T03:15:09;61397.39;;;15.57;65.05
72794;BME280;63436;26.334;50.194;2023-02-01T03:17:34;61397.39;;;15.57;65.05
72794;BME280;63436;26.334;50.194;2023-02-01T03:19:58;61397.39;;;15.57;65.05
72794;BME280;63436;26.334;50.194;2023-02-01T03:22:24;61397.39;;;15.81;65.05
72794;BME280;63436;26.334;50.194;2023-02-01T03:24:48;61397.39;;;16.05;65.05
72794;BME280;63436;26.334;50.194;2023-02-01T03:27:17;61397.39;;;16.05;65.05
72794;BME280;63436;26.334;50.194;2023-02-01T03:29:45;61397.39;;;16.05;65.05
72794;BME280;63436;26.334;50.194;2023-02-01T03:32:04;61397.39;;;16.05;65.05
72794;BME280;63436;26.334;50.194;2023-02-01T03:34:29;61397.39;;;15.81;65.05
72794;BME280;63436;26.334;50.194;2023-02-01T03:36:58;61397.39;;;16.05;65.05
72794;BME280;63436;26.334;50.194;2023-02-01T03:39:24;61397.39;;;15.81;65.05
72794;BME280;63436;26.334;50.194;2023-02-01T03:41:48;61397.39;;;15.57;65.05
72794;BME280;63436;26.334;50.194;2023-02-01T03:44:14;61397.39;;;15.57;65.05
72794;BME280;63436;26.334;50.194;2023-02-01T03:46:41;61397.39;;;16.05;65.05
72794;BME280;63436;26.334;50.194;2023-02-01T03:49:06;61397.39;;;15.57;65.05
72794;BME280;63436;26.334;50.194;2023-02-01T03:51:28;61397.39;;;16.05;65.05
72794;BME280;63436;26.334;50.194;2023-02-01T03:53:53;61397.39;;;16.05;65.05
72794;BME280;63436;26.334;50.194;2023-02-01T03:56:22;61397.39;;;15.81;65.05
72794;BME280;63436;26.334;50.194;2023-02-01T03:58:44;61397.39;;;15.57;65.05
72794;BME280;63436;26.334;50.194;2023-02-01T04:01:10;61397.39;;;15.57;65.05
72794;BME280;63436;26.334;50.194;2023-02-01T04:03:36;61397.39;;;15.57;65.05
72794;BME280;63436;26.334;50.194;2023-02-01T04:06:01;61397.39;;;15.57;65.05
72794;BME280;63436;26.334;50.194;2023-02-01T04:08:26;61397.39;;;15.33;65.05
72794;BME280;63436;26.334;50.194;2023-02-01T04:10:52;61397.39;;;15.57;65.05
72794;BME280;63436;26.334;50.194;2023-02-01T04:13:17;61397.39;;;15.57;65.05
72794;BME280;63436;26.334;50.194;2023-02-01T04:15:43;61397.39;;;15.57;65.05
72794;BME280;63436;26.334;50.194;2023-02-01T04:18:08;61397.39;;;15.57;65.05
72794;BME280;63436;26.334;50.194;2023-02-01T04:20:34;61397.39;;;15.57;65.05
72794;BME280;63436;26.334;50.194;2023-02-01T04:23:00;61397.39;;;15.33;65.05
72794;BME280;63436;26.334;50.194;2023-02-01T04:25:25;61397.39;;;15.09;65.05
72794;BME280;63436;26.334;50.194;2023-02-01T04:27:50;61397.39;;;15.09;65.05
72794;BME280;63436;26.334;50.194;2023-02-01T04:30:16;61397.39;;;15.09;65.05
72794;BME280;63436;26.334;50.194;2023-02-01T04:32:41;61397.39;;;14.85;65.05
72794;BME280;63436;26.334;50.194;2023-02-01T04:35:07;61397.39;;;14.85;65.05
72794;BME280;63436;26.334;50.194;2023-02-01T04:37:32;61397.39;;;15.09;65.05
72794;BME280;63436;26.334;50.194;2023-02-01T04:39:57;61397.39;;;15.33;65.05
72794;BME280;63436;26.334;50.194;2023-02-01T04:42:23;61397.39;;;15.33;65.05
72794;BME280;63436;26.334;50.194;2023-02-01T04:44:48;61397.39;;;15.09;65.05
72794;BME280;63436;26.334;50.194;2023-02-01T04:47:14;61397.39;;;15.33;65.05
72794;BME280;63436;26.334;50.194;2023-02-01T04:49:39;61397.39;;;15.09;65.05
72794;BME280;63436;26.334;50.194;2023-02-01T04:52:04;61397.39;;;15.09;65.05
72794;BME280;63436;26.334;50.194;2023-02-01T04:54:29;61397.39;;;15.09;65.05
72794;BME280;63436;26.334;50.194;2023-02-01T04:56:54;61397.39;;;15.09;65.05
72794;BME280;63436;26.334;50.194;2023-02-01T04:59:20;61397.39;;;15.09;65.05
72794;BME280;63436;26.334;50.194;2023-02-01T05:01:45;61397.39;;;15.09;65.05
72794;BME280;63436;26.334;50.194;2023-02-01T05:04:12;61397.39;;;14.85;65.05
72794;BME280;63436;26.334;50.194;2023-02-01T05:06:36;61397.39;;;14.85;65.05
72794;BME280;63436;26.334;50.194;2023-02-01T05:09:02;61397.39;;;15.09;65.05
72794;BME280;63436;26.334;50.194;2023-02-01T05:11:27;61397.39;;;15.09;65.05
72794;BME280;63436;26.334;50.194;2023-02-01T05:13:52;61397.39;;;15.33;65.05
72794;BME280;63436;26.334;50.194;2023-02-01T05:16:17;61397.39;;;14.85;65.05
72794;BME280;63436;26.334;50.194;2023-02-01T05:18:42;61397.39;;;15.09;65.05
72794;BME280;63436;26.334;50.194;2023-02-01T05:21:08;61397.39;;;15.09;65.05
72794;BME280;63436;26.334;50.194;2023-02-01T05:23:33;61397.39;;;15.09;65.05
72794;BME280;63436;26.334;50.194;2023-02-01T05:25:59;61397.39;;;15.09;65.05
72794;BME280;63436;26.334;50.194;2023-02-01T05:28:25;61397.39;;;15.09;65.05
72794;BME280;63436;26.334;50.194;2023-02-01T05:30:49;61397.39;;;15.09;65.05
72794;BME280;63436;26.334;50.194;2023-02-01T05:33:15;61397.39;;;15.57;65.05
72794;BME280;63436;26.334;50.194;2023-02-01T05:35:40;61397.39;;;15.33;65.05
72794;BME280;63436;26.334;50.194;2023-02-01T05:38:05;61397.39;;;15.57;65.05
72794;BME280;63436;26.334;50.194;2023-02-01T05:40:31;61397.39;;;15.57;65.05
72794;BME280;63436;26.334;50.194;2023-02-01T05:42:57;61397.39;;;15.57;65.05
72794;BME280;63436;26.334;50.194;2023-02-01T05:45:22;61397.39;;;15.33;65.05
72794;BME280;63436;26.334;50.194;2023-02-01T05:47:47;61397.39;;;15.09;65.05
72794;BME280;63436;26.334;50.194;2023-02-01T05:50:12;61397.39;;;15.09;65.05
72794;BME280;63436;26.334;50.194;2023-02-01T05:52:38;61397.39;;;15.09;65.05
72794;BME280;63436;26.334;50.194;2023-02-01T05:55:03;61397.39;;;14.62;65.05
72794;BME280;63436;26.334;50.194;2023-02-01T05:57:29;61397.39;;;14.85;65.05
72794;BME280;63436;26.334;50.194;2023-02-01T05:59:54;61397.39;;;14.85;65.05
72794;BME280;63436;26.334;50.194;2023-02-01T06:02:29;61397.39;;;14.62;65.05
72794;BME280;63436;26.334;50.194;2023-02-01T06:04:45;61397.39;;;14.85;65.05
72794;BME280;63436;26.334;50.194;2023-02-01T06:07:10;61397.39;;;14.62;65.05
72794;BME280;63436;26.334;50.194;2023-02-01T06:09:35;61397.39;;;14.62;65.05
72794;BME280;63436;26.334;50.194;2023-02-01T06:12:01;61397.39;;;14.14;65.05
72794;BME280;63436;26.334;50.194;2023-02-01T06:14:26;61397.39;;;14.62;65.05
72794;BME280;63436;26.334;50.194;2023-02-01T06:16:51;61397.39;;;14.38;65.05
72794;BME280;63436;26.334;50.194;2023-02-01T06:19:17;61397.39;;;14.38;65.05
72794;BME280;63436;26.334;50.194;2023-02-01T06:21:42;61397.39;;;14.38;65.05
72794;BME280;63436;26.334;50.194;2023-02-01T06:24:09;61397.39;;;14.38;65.05
72794;BME280;63436;26.334;50.194;2023-02-01T06:26:33;61397.39;;;14.38;65.05
72794;BME280;63436;26.334;50.194;2023-02-01T06:28:59;61397.39;;;14.14;65.05
72794;BME280;63436;26.334;50.194;2023-02-01T06:31:24;61397.39;;;14.38;65.05
72794;BME280;63436;26.334;50.194;2023-02-01T06:33:49;61397.39;;;14.14;65.05
72794;BME280;63436;26.334;50.194;2023-02-01T06:36:15;61397.39;;;14.62;65.05
72794;BME280;63436;26.334;50.194;2023-02-01T06:38:40;61397.39;;;14.14;65.05
72794;BME280;63436;26.334;50.194;2023-02-01T06:41:06;61397.39;;;13.90;65.05
72794;BME280;63436;26.334;50.194;2023-02-01T06:43:31;61397.39;;;13.90;65.05
72794;BME280;63436;26.334;50.194;2023-02-01T06:46:00;61397.39;;;14.14;65.05
72794;BME280;63436;26.334;50.194;2023-02-01T06:48:22;61397.39;;;13.90;65.05
72794;BME280;63436;26.334;50.194;2023-02-01T06:50:48;61397.39;;;13.90;65.05
72794;BME280;63436;26.334;50.194;2023-02-01T06:53:13;61397.39;;;14.14;65.05
72794;BME280;63436;26.334;50.194;2023-02-01T06:55:38;61397.39;;;14.14;65.05
72794;BME280;63436;26.334;50.194;2023-02-01T06:58:04;61397.39;;;14.38;65.05
72794;BME280;63436;26.334;50.194;2023-02-01T07:00:30;61397.39;;;14.62;65.05
72794;BME280;63436;26.334;50.194;2023-02-01T07:02:56;61397.39;;;14.14;65.05
72794;BME280;63436;26.334;50.194;2023-02-01T07:05:21;61397.39;;;14.38;65.05
72794;BME280;63436;26.334;50.194;2023-02-01T07:07:45;61397.39;;;14.38;65.05
72794;BME280;63436;26.334;50.194;2023-02-01T07:10:12;61397.39;;;14.14;65.05
72794;BME280;63436;26.334;50.194;2023-02-01T07:12:36;61397.39;;;14.14;65.05
72794;BME280;63436;26.334;50.194;2023-02-01T07:15:03;61397.39;;;14.14;65.05
72794;BME280;63436;26.334;50.194;2023-02-01T07:17:28;61397.39;;;14.14;65.05
72794;BME280;63436;26.334;50.194;2023-02-01T07:19:53;61397.39;;;14.14;65.05
72794;BME280;63436;26.334;50.194;2023-02-01T07:22:19;61397.39;;;14.14;65.05
72794;BME280;63436;26.334;50.194;2023-02-01T07:24:44;61397.39;;;14.14;65.05
72794;BME280;63436;26.334;50.194;2023-02-01T07:27:10;61397.39;;;14.14;65.05
72794;BME280;63436;26.334;50.194;2023-02-01T07:29:34;61397.39;;;14.14;65.05
72794;BME280;63436;26.334;50.194;2023-02-01T07:32:00;61397.39;;;14.38;65.05
72794;BME280;63436;26.334;50.194;2023-02-01T07:34:26;61397.39;;;14.38;65.05
72794;BME280;63436;26.334;50.194;2023-02-01T07:36:51;61397.39;;;14.38;65.05
72794;BME280;63436;26.334;50.194;2023-02-01T07:39:17;61397.39;;;14.14;65.05
72794;BME280;63436;26.334;50.194;2023-02-01T07:41:42;61397.39;;;14.38;65.05
72794;BME280;63436;26.334;50.194;2023-02-01T07:44:07;61397.39;;;14.14;65.05
72794;BME280;63436;26.334;50.194;2023-02-01T07:46:32;61397.39;;;14.62;65.05
72794;BME280;63436;26.334;50.194;2023-02-01T07:48:58;61397.39;;;14.62;65.05
72794;BME280;63436;26.334;50.194;2023-02-01T07:51:24;61397.39;;;14.14;65.05
72794;BME280;63436;26.334;50.194;2023-02-01T07:53:49;61397.39;;;14.14;65.05
72794;BME280;63436;26.334;50.194;2023-02-01T07:56:18;61397.39;;;13.90;65.05
72794;BME280;63436;26.334;50.194;2023-02-01T07:58:40;61397.39;;;14.14;65.05
72794;BME280;63436;26.334;50.194;2023-02-01T08:01:05;61397.39;;;13.90;65.05
72794;BME280;63436;26.334;50.194;2023-02-01T08:03:31;61397.39;;;13.66;65.05
72794;BME280;63436;26.334;50.194;2023-02-01T08:05:57;61397.39;;;13.66;65.05
72794;BME280;63436;26.334;50.194;2023-02-01T08:08:22;61397.39;;;13.66;65.05
72794;BME280;63436;26.334;50.194;2023-02-01T08:10:47;61397.39;;;13.66;65.05
72794;BME280;63436;26.334;50.194;2023-02-01T08:13:13;61397.39;;;13.66;65.05
72794;BME280;63436;26.334;50.194;2023-02-01T08:15:38;61397.39;;;13.66;65.05
72794;BME280;63436;26.334;50.194;2023-02-01T08:18:04;61397.39;;;13.18;65.05
72794;BME280;63436;26.334;50.194;2023-02-01T08:20:29;61397.39;;;13.66;65.05
72794;BME280;63436;26.334;50.194;2023-02-01T08:22:55;61397.39;;;13.42;65.05
72794;BME280;63436;26.334;50.194;2023-02-01T08:25:21;61397.39;;;13.66;65.05
72794;BME280;63436;26.334;50.194;2023-02-01T08:27:46;61397.39;;;13.66;65.05
72794;BME280;63436;26.334;50.194;2023-02-01T08:30:12;61397.39;;;13.66;65.05
72794;BME280;63436;26.334;50.194;2023-02-01T08:32:36;61397.39;;;13.66;65.05
72794;BME280;63436;26.334;50.194;2023-02-01T08:35:01;61397.39;;;13.42;65.05
72794;BME280;63436;26.334;50.194;2023-02-01T08:37:26;61397.39;;;12.94;65.05
72794;BME280;63436;26.334;50.194;2023-02-01T08:39:51;61397.39;;;13.18;65.05
72794;BME280;63436;26.334;50.194;2023-02-01T08:42:17;61397.39;;;13.18;65.05
72794;BME280;63436;26.334;50.194;2023-02-01T08:44:43;61397.39;;;13.18;65.05
72794;BME280;63436;26.334;50.194;2023-02-01T08:47:08;61397.39;;;13.18;65.05
72794;BME280;63436;26.334;50.194;2023-02-01T08:49:34;61397.39;;;12.94;65.05
72794;BME280;63436;26.334;50.194;2023-02-01T08:51:59;61397.39;;;13.18;65.05
72794;BME280;63436;26.334;50.194;2023-02-01T08:54:25;61397.39;;;12.94;65.05
72794;BME280;63436;26.334;50.194;2023-02-01T08:56:51;61397.39;;;13.18;65.05
72794;BME280;63436;26.334;50.194;2023-02-01T08:59:17;61397.39;;;13.18;65.05
72794;BME280;63436;26.334;50.194;2023-02-01T09:01:42;61397.39;;;13.18;65.05
72794;BME280;63436;26.334;50.194;2023-02-01T09:04:08;61397.39;;;12.94;65.05
72794;BME280;63436;26.334;50.194;2023-02-01T09:06:34;61397.39;;;12.70;65.05
72794;BME280;63436;26.334;50.194;2023-02-01T09:08:59;61397.39;;;12.94;65.05
72794;BME280;63436;26.334;50.194;2023-02-01T09:11:24;61397.39;;;12.46;65.05
72794;BME280;63436;26.334;50.194;2023-02-01T09:13:50;61397.39;;;13.18;65.05
72794;BME280;63436;26.334;50.194;2023-02-01T09:16:15;61397.39;;;12.94;65.05
72794;BME280;63436;26.334;50.194;2023-02-01T09:18:41;61397.39;;;13.18;65.05
72794;BME280;63436;26.334;50.194;2023-02-01T09:21:06;61397.39;;;13.18;65.05
72794;BME280;63436;26.334;50.194;2023-02-01T09:23:31;61397.39;;;13.18;65.05
72794;BME280;63436;26.334;50.194;2023-02-01T09:25:59;61397.39;;;13.18;65.05
72794;BME280;63436;26.334;50.194;2023-02-01T09:28:22;61397.39;;;13.18;65.05
72794;BME280;63436;26.334;50.194;2023-02-01T09:30:48;61397.39;;;13.42;65.05
72794;BME280;63436;26.334;50.194;2023-02-01T09:33:13;61397.39;;;13.18;65.05
72794;BME280;63436;26.334;50.194;2023-02-01T09:35:39;61397.39;;;12.94;65.05
72794;BME280;63436;26.334;50.194;2023-02-01T09:38:04;61397.39;;;12.94;65.05
72794;BME280;63436;26.334;50.194;2023-02-01T09:40:30;61397.39;;;12.94;65.05
72794;BME280;63436;26.334;50.194;2023-02-01T09:43:07;61397.39;;;12.94;65.05
72794;BME280;63436;26.334;50.194;2023-02-01T09:45:26;61397.39;;;12.70;65.05
72794;BME280;63436;26.334;50.194;2023-02-01T09:47:49;61397.39;;;12.70;65.05
72794;BME280;63436;26.334;50.194;2023-02-01T09:50:15;61397.39;;;12.70;65.05
72794;BME280;63436;26.334;50.194;2023-02-01T09:52:42;61397.39;;;12.70;65.05
72794;BME280;63436;26.334;50.194;2023-02-01T09:55:06;61397.39;;;12.46;65.05
72794;BME280;63436;26.334;50.194;2023-02-01T09:57:39;61397.39;;;12.46;65.05
72794;BME280;63436;26.334;50.194;2023-02-01T09:59:59;61397.39;;;12.70;65.05
72794;BME280;63436;26.334;50.194;2023-02-01T10:02:21;61397.39;;;12.70;65.05
72794;BME280;63436;26.334;50.194;2023-02-01T10:04:45;61397.39;;;12.70;65.05
72794;BME280;63436;26.334;50.194;2023-02-01T10:07:18;61397.39;;;12.70;65.05
72794;BME280;63436;26.334;50.194;2023-02-01T10:09:45;61397.39;;;12.70;65.05
72794;BME280;63436;26.334;50.194;2023-02-01T10:12:16;61397.39;;;12.70;65.05
72794;BME280;63436;26.334;50.194;2023-02-01T10:14:40;61397.39;;;12.46;65.05
72794;BME280;63436;26.334;50.194;2023-02-01T10:16:58;61397.39;;;12.46;65.05
72794;BME280;63436;26.334;50.194;2023-02-01T10:19:26;61397.39;;;12.22;65.05
72794;BME280;63436;26.334;50.194;2023-02-01T10:21:51;61397.39;;;12.70;65.05
72794;BME280;63436;26.334;50.194;2023-02-01T10:24:27;61397.39;;;12.22;65.05
72794;BME280;63436;26.334;50.194;2023-02-01T10:26:39;61397.39;;;12.46;65.05
72794;BME280;63436;26.334;50.194;2023-02-01T10:29:02;61397.39;;;12.22;65.05
72794;BME280;63436;26.334;50.194;2023-02-01T10:31:28;61397.39;;;12.22;65.05
72794;BME280;63436;26.334;50.194;2023-02-01T10:33:55;61397.39;;;12.22;65.05
72794;BME280;63436;26.334;50.194;2023-02-01T10:36:20;61397.39;;;12.22;65.05
72794;BME280;63436;26.334;50.194;2023-02-01T10:38:43;61397.39;;;12.22;65.05
72794;BME280;63436;26.334;50.194;2023-02-01T10:41:13;61397.39;;;12.22;65.05
72794;BME280;63436;26.334;50.194;2023-02-01T10:43:33;61397.39;;;12.22;65.05
72794;BME280;63436;26.334;50.194;2023-02-01T10:45:59;61397.39;;;12.22;65.05
72794;BME280;63436;26.334;50.194;2023-02-01T10:48:24;61397.39;;;12.22;65.05
72794;BME280;63436;26.334;50.194;2023-02-01T10:50:54;61397.39;;;12.22;65.05
72794;BME280;63436;26.334;50.194;2023-02-01T10:53:18;61397.39;;;12.22;65.05
72794;BME280;63436;26.334;50.194;2023-02-01T10:55:43;61397.39;;;12.22;65.05
72794;BME280;63436;26.334;50.194;2023-02-01T10:58:07;61397.39;;;12.22;65.05
72794;BME280;63436;26.334;50.194;2023-02-01T11:00:41;61397.39;;;12.22;65.05
72794;BME280;63436;26.334;50.194;2023-02-01T11:02:55;61397.39;;;12.22;65.05
72794;BME280;63436;26.334;50.194;2023-02-01T11:05:21;61397.39;;;11.99;65.05
72794;BME280;63436;26.334;50.194;2023-02-01T11:07:49;61397.39;;;11.99;65.05
72794;BME280;63436;26.334;50.194;2023-02-01T11:12:38;61397.39;;;12.22;65.05
72794;BME280;63436;26.334;50.194;2023-02-01T11:15:15;61397.39;;;12.22;65.05
72794;BME280;63436;26.334;50.194;2023-02-01T11:17:33;61397.39;;;12.22;65.05
72794;BME280;63436;26.334;50.194;2023-02-01T11:19:58;61397.39;;;11.75;65.05
72794;BME280;63436;26.334;50.194;2023-02-01T11:22:18;61397.39;;;11.99;65.05
72794;BME280;63436;26.334;50.194;2023-02-01T11:24:45;61397.39;;;11.99;65.05
72794;BME280;63436;26.334;50.194;2023-02-01T11:27:14;61397.39;;;11.99;65.05
72794;BME280;63436;26.334;50.194;2023-02-01T11:29:38;61397.39;;;11.99;65.05
72794;BME280;63436;26.334;50.194;2023-02-01T11:32:02;61397.39;;;11.99;65.05
72794;BME280;63436;26.334;50.194;2023-02-01T11:34:31;61397.39;;;12.22;65.05
72794;BME280;63436;26.334;50.194;2023-02-01T11:36:54;61397.39;;;12.22;65.05
72794;BME280;63436;26.334;50.194;2023-02-01T11:39:23;61397.39;;;12.22;65.05
72794;BME280;63436;26.334;50.194;2023-02-01T11:41:44;61397.39;;;11.99;65.05
72794;BME280;63436;26.334;50.194;2023-02-01T11:44:19;61397.39;;;12.22;65.05
72794;BME280;63436;26.334;50.194;2023-02-01T11:46:35;61397.39;;;12.46;65.05
72794;BME280;63436;26.334;50.194;2023-02-01T11:51:40;61397.39;;;12.22;65.05
72794;BME280;63436;26.334;50.194;2023-02-01T11:54:05;61397.39;;;12.70;65.05
72794;BME280;63436;26.334;50.194;2023-02-01T11:56:22;61397.39;;;12.70;65.05
72794;BME280;63436;26.334;50.194;2023-02-01T11:58:53;61397.39;;;12.70;65.05
72794;BME280;63436;26.334;50.194;2023-02-01T12:01:20;61397.39;;;12.94;65.05
72794;BME280;63436;26.334;50.194;2023-02-01T12:03:42;61397.39;;;12.94;65.05
72794;BME280;63436;26.334;50.194;2023-02-01T12:05:59;61397.39;;;12.94;65.05
72794;BME280;63436;26.334;50.194;2023-02-01T12:08:31;61397.39;;;12.70;65.05
72794;BME280;63436;26.334;50.194;2023-02-01T12:10:57;61397.39;;;12.46;65.05
72794;BME280;63436;26.334;50.194;2023-02-01T12:13:22;61397.39;;;12.94;65.05
72794;BME280;63436;26.334;50.194;2023-02-01T12:15:49;61397.39;;;12.94;65.05
72794;BME280;63436;26.334;50.194;2023-02-01T12:18:19;61397.39;;;12.94;65.05
72794;BME280;63436;26.334;50.194;2023-02-01T12:20:41;61397.39;;;13.18;65.05
72794;BME280;63436;26.334;50.194;2023-02-01T12:23:06;61397.39;;;12.46;65.05
72794;BME280;63436;26.334;50.194;2023-02-01T12:25:29;61397.39;;;12.70;65.05
72794;BME280;63436;26.334;50.194;2023-02-01T12:27:59;61397.39;;;12.94;65.05
72794;BME280;63436;26.334;50.194;2023-02-01T12:32:49;61397.39;;;12.94;65.05
72794;BME280;63436;26.334;50.194;2023-02-01T12:35:13;61397.39;;;12.46;65.05
72794;BME280;63436;26.334;50.194;2023-02-01T12:37:37;61397.39;;;12.22;65.05
72794;BME280;63436;26.334;50.194;2023-02-01T12:40:00;61397.39;;;12.70;65.05
72794;BME280;63436;26.334;50.194;2023-02-01T12:42:22;61397.39;;;12.70;65.05
72794;BME280;63436;26.334;50.194;2023-02-01T12:44:49;61397.39;;;12.70;65.05
72794;BME280;63436;26.334;50.194;2023-02-01T12:47:16;61397.39;;;12.46;65.05
72794;BME280;63436;26.334;50.194;2023-02-01T12:49:44;61397.39;;;12.70;65.05